sensor_id;sensor_type;location;lat;lon;timestamp;pressure;altitude;pressure_sealevel;temperature;humidity
74834;BME280;63361;52.384;20.930;2022-12-07T00:01:40;100042.09;;;0.21;100.00
74834;BME280;63361;52.384;20.930;2022-12-07T00:04:09;100042.31;;;0.19;100.00
74834;BME280;63361;52.384;20.930;2022-12-07T00:06:40;100042.69;;;0.23;100.00
74834;BME280;63361;52.384;20.930;2022-12-07T00:09:08;100036.19;;;0.19;100.00
74834;BME280;63361;52.384;20.930;2022-12-07T00:11:34;100032.50;;;0.20;100.00
74834;BME280;63361;52.384;20.930;2022-12-07T00:14:02;100030.22;;;0.23;100.00
74834;BME280;63361;52.384;20.930;2022-12-07T00:16:30;100022.47;;;0.22;100.00
74834;BME280;63361;52.384;20.930;2022-12-07T00:18:56;100035.69;;;0.28;100.00
74834;BME280;63361;52.384;20.930;2022-12-07T00:21:24;100032.13;;;0.34;100.00
74834;BME280;63361;52.384;20.930;2022-12-07T00:23:52;100034.19;;;0.32;100.00
74834;BME280;63361;52.384;20.930;2022-12-07T00:26:22;100035.59;;;0.35;100.00
74834;BME280;63361;52.384;20.930;2022-12-07T00:28:49;100024.84;;;0.30;100.00
74834;BME280;63361;52.384;20.930;2022-12-07T00:31:16;100031.19;;;0.29;100.00
74834;BME280;63361;52.384;20.930;2022-12-07T00:33:42;100035.09;;;0.45;100.00
74834;BME280;63361;52.384;20.930;2022-12-07T00:36:13;100027.84;;;0.33;100.00
74834;BME280;63361;52.384;20.930;2022-12-07T00:38:40;100030.22;;;0.42;100.00
74834;BME280;63361;52.384;20.930;2022-12-07T00:41:14;100023.56;;;0.32;100.00
74834;BME280;63361;52.384;20.930;2022-12-07T00:43:41;100025.13;;;0.40;100.00
74834;BME280;63361;52.384;20.930;2022-12-07T00:46:07;99998.31;;;0.30;100.00
74834;BME280;63361;52.384;20.930;2022-12-07T00:48:32;100018.47;;;0.49;100.00
74834;BME280;63361;52.384;20.930;2022-12-07T00:50:58;100022.53;;;0.52;100.00
74834;BME280;63361;52.384;20.930;2022-12-07T00:53:24;100013.03;;;0.44;100.00
74834;BME280;63361;52.384;20.930;2022-12-07T00:55:49;100023.13;;;0.54;100.00
74834;BME280;63361;52.384;20.930;2022-12-07T00:58:15;100019.50;;;0.48;100.00
74834;BME280;63361;52.384;20.930;2022-12-07T01:00:41;100017.53;;;0.44;100.00
74834;BME280;63361;52.384;20.930;2022-12-07T01:03:10;100016.25;;;0.46;100.00
74834;BME280;63361;52.384;20.930;2022-12-07T01:05:36;100005.81;;;0.33;100.00
74834;BME280;63361;52.384;20.930;2022-12-07T01:08:01;100014.28;;;0.42;100.00
74834;BME280;63361;52.384;20.930;2022-12-07T01:10:27;100012.06;;;0.39;100.00
74834;BME280;63361;52.384;20.930;2022-12-07T01:12:53;100015.53;;;0.39;100.00
74834;BME280;63361;52.384;20.930;2022-12-07T01:15:19;100001.53;;;0.32;100.00
74834;BME280;63361;52.384;20.930;2022-12-07T01:17:44;99998.59;;;0.40;100.00
74834;BME280;63361;52.384;20.930;2022-12-07T01:20:10;100013.03;;;0.44;100.00
74834;BME280;63361;52.384;20.930;2022-12-07T01:22:37;100004.13;;;0.39;100.00
74834;BME280;63361;52.384;20.930;2022-12-07T01:25:04;99999.63;;;0.39;100.00
74834;BME280;63361;52.384;20.930;2022-12-07T01:27:30;99997.41;;;0.36;100.00
74834;BME280;63361;52.384;20.930;2022-12-07T01:29:55;99993.34;;;0.33;100.00
74834;BME280;63361;52.384;20.930;2022-12-07T01:32:20;100000.69;;;0.50;100.00
74834;BME280;63361;52.384;20.930;2022-12-07T01:34:48;99995.75;;;0.53;100.00
74834;BME280;63361;52.384;20.930;2022-12-07T01:37:13;99991.09;;;0.49;100.00
74834;BME280;63361;52.384;20.930;2022-12-07T01:39:39;99990.06;;;0.50;100.00
74834;BME280;63361;52.384;20.930;2022-12-07T01:42:04;99981.75;;;0.46;100.00
74834;BME280;63361;52.384;20.930;2022-12-07T01:44:30;99976.69;;;0.45;100.00
74834;BME280;63361;52.384;20.930;2022-12-07T01:46:59;99978.06;;;0.47;100.00
74834;BME280;63361;52.384;20.930;2022-12-07T01:51:58;99990.28;;;0.48;100.00
74834;BME280;63361;52.384;20.930;2022-12-07T01:54:26;99980.81;;;0.41;100.00
74834;BME280;63361;52.384;20.930;2022-12-07T01:56:53;99976.72;;;0.56;100.00
74834;BME280;63361;52.384;20.930;2022-12-07T01:59:22;99986.97;;;0.53;100.00
74834;BME280;63361;52.384;20.930;2022-12-07T02:01:50;99971.13;;;0.46;100.00
74834;BME280;63361;52.384;20.930;2022-12-07T02:04:16;99987.56;;;0.55;100.00
74834;BME280;63361;52.384;20.930;2022-12-07T02:06:42;99974.06;;;0.56;100.00
74834;BME280;63361;52.384;20.930;2022-12-07T02:09:09;99985.41;;;0.63;100.00
74834;BME280;63361;52.384;20.930;2022-12-07T02:11:35;99979.06;;;0.64;100.00
74834;BME280;63361;52.384;20.930;2022-12-07T02:14:00;99975.94;;;0.67;100.00
74834;BME280;63361;52.384;20.930;2022-12-07T02:21:54;99969.75;;;0.74;100.00
74834;BME280;63361;52.384;20.930;2022-12-07T02:27:28;99974.09;;;0.98;100.00
74834;BME280;63361;52.384;20.930;2022-12-07T02:32:40;99971.56;;;1.03;100.00
74834;BME280;63361;52.384;20.930;2022-12-07T02:35:29;99975.25;;;1.02;100.00
74834;BME280;63361;52.384;20.930;2022-12-07T02:40:53;99939.28;;;0.88;100.00
74834;BME280;63361;52.384;20.930;2022-12-07T02:43:23;99962.88;;;0.96;100.00
74834;BME280;63361;52.384;20.930;2022-12-07T02:45:51;99959.28;;;0.90;100.00
74834;BME280;63361;52.384;20.930;2022-12-07T02:48:18;99961.66;;;0.80;100.00
74834;BME280;63361;52.384;20.930;2022-12-07T02:50:48;99970.72;;;0.91;100.00
74834;BME280;63361;52.384;20.930;2022-12-07T02:55:54;99955.09;;;0.83;100.00
74834;BME280;63361;52.384;20.930;2022-12-07T02:58:32;99963.06;;;0.83;100.00
74834;BME280;63361;52.384;20.930;2022-12-07T03:01:41;99943.78;;;0.76;100.00
74834;BME280;63361;52.384;20.930;2022-12-07T03:07:10;99964.25;;;0.87;100.00
74834;BME280;63361;52.384;20.930;2022-12-07T03:09:49;99961.38;;;1.00;100.00
74834;BME280;63361;52.384;20.930;2022-12-07T03:12:24;99962.75;;;0.91;100.00
74834;BME280;63361;52.384;20.930;2022-12-07T03:15:08;99959.84;;;0.92;100.00
74834;BME280;63361;52.384;20.930;2022-12-07T03:17:38;99952.34;;;0.89;100.00
74834;BME280;63361;52.384;20.930;2022-12-07T03:20:08;99972.31;;;0.92;100.00
74834;BME280;63361;52.384;20.930;2022-12-07T03:22:35;99955.25;;;0.88;100.00
74834;BME280;63361;52.384;20.930;2022-12-07T03:25:07;99963.69;;;0.96;100.00
74834;BME280;63361;52.384;20.930;2022-12-07T03:27:56;99964.13;;;0.93;100.00
74834;BME280;63361;52.384;20.930;2022-12-07T03:30:27;99950.97;;;0.87;100.00
74834;BME280;63361;52.384;20.930;2022-12-07T03:33:01;99961.59;;;0.87;100.00
74834;BME280;63361;52.384;20.930;2022-12-07T03:35:47;99929.91;;;0.74;100.00
74834;BME280;63361;52.384;20.930;2022-12-07T03:38:22;99947.72;;;0.85;100.00
74834;BME280;63361;52.384;20.930;2022-12-07T03:43:20;99938.31;;;0.70;100.00
74834;BME280;63361;52.384;20.930;2022-12-07T03:48:32;99938.09;;;0.72;100.00
74834;BME280;63361;52.384;20.930;2022-12-07T03:54:16;99938.34;;;0.82;100.00
74834;BME280;63361;52.384;20.930;2022-12-07T03:56:44;99937.91;;;0.97;100.00
74834;BME280;63361;52.384;20.930;2022-12-07T03:59:12;99929.94;;;0.85;100.00
74834;BME280;63361;52.384;20.930;2022-12-07T04:01:42;99916.28;;;0.82;100.00
74834;BME280;63361;52.384;20.930;2022-12-07T04:04:07;99921.81;;;0.80;100.00
74834;BME280;63361;52.384;20.930;2022-12-07T04:06:32;99924.47;;;0.80;100.00
74834;BME280;63361;52.384;20.930;2022-12-07T04:08:58;99916.50;;;0.80;100.00
74834;BME280;63361;52.384;20.930;2022-12-07T04:11:23;99911.41;;;0.79;100.00
74834;BME280;63361;52.384;20.930;2022-12-07T04:13:48;99914.00;;;0.85;100.00
74834;BME280;63361;52.384;20.930;2022-12-07T04:16:32;99921.16;;;0.85;100.00
74834;BME280;63361;52.384;20.930;2022-12-07T04:18:58;99918.84;;;0.88;100.00
74834;BME280;63361;52.384;20.930;2022-12-07T04:21:23;99911.56;;;0.84;100.00
74834;BME280;63361;52.384;20.930;2022-12-07T04:23:49;99923.13;;;0.89;100.00
74834;BME280;63361;52.384;20.930;2022-12-07T04:26:14;99901.50;;;0.74;100.00
74834;BME280;63361;52.384;20.930;2022-12-07T04:28:39;99909.47;;;0.74;100.00
74834;BME280;63361;52.384;20.930;2022-12-07T04:31:04;99910.75;;;0.83;100.00
74834;BME280;63361;52.384;20.930;2022-12-07T04:33:30;99907.50;;;0.81;100.00
74834;BME280;63361;52.384;20.930;2022-12-07T04:35:55;99909.94;;;0.83;100.00
74834;BME280;63361;52.384;20.930;2022-12-07T04:38:20;99904.97;;;0.86;100.00
74834;BME280;63361;52.384;20.930;2022-12-07T04:40:46;99915.75;;;0.91;100.00
74834;BME280;63361;52.384;20.930;2022-12-07T04:43:11;99895.47;;;0.79;100.00
74834;BME280;63361;52.384;20.930;2022-12-07T04:45:36;99902.19;;;0.81;100.00
74834;BME280;63361;52.384;20.930;2022-12-07T04:48:02;99905.88;;;0.80;100.00
74834;BME280;63361;52.384;20.930;2022-12-07T04:50:27;99905.66;;;0.70;100.00
74834;BME280;63361;52.384;20.930;2022-12-07T04:52:52;99905.66;;;0.70;100.00
74834;BME280;63361;52.384;20.930;2022-12-07T04:55:18;99901.13;;;0.70;100.00
74834;BME280;63361;52.384;20.930;2022-12-07T04:57:43;99878.94;;;0.53;100.00
74834;BME280;63361;52.384;20.930;2022-12-07T05:00:09;99907.84;;;0.73;100.00
74834;BME280;63361;52.384;20.930;2022-12-07T05:02:34;99906.81;;;0.74;100.00
74834;BME280;63361;52.384;20.930;2022-12-07T05:05:00;99910.94;;;0.70;100.00
74834;BME280;63361;52.384;20.930;2022-12-07T05:07:25;99893.97;;;0.59;100.00
74834;BME280;63361;52.384;20.930;2022-12-07T05:09:50;99896.41;;;0.61;100.00
74834;BME280;63361;52.384;20.930;2022-12-07T05:12:15;99898.84;;;0.74;100.00
74834;BME280;63361;52.384;20.930;2022-12-07T05:14:41;99894.66;;;0.66;100.00
74834;BME280;63361;52.384;20.930;2022-12-07T05:17:06;99893.47;;;0.62;100.00
74834;BME280;63361;52.384;20.930;2022-12-07T05:19:31;99883.22;;;0.54;100.00
74834;BME280;63361;52.384;20.930;2022-12-07T05:21:57;99885.41;;;0.57;100.00
74834;BME280;63361;52.384;20.930;2022-12-07T05:24:22;99894.84;;;0.53;100.00
74834;BME280;63361;52.384;20.930;2022-12-07T05:26:48;99895.81;;;0.59;100.00
74834;BME280;63361;52.384;20.930;2022-12-07T05:29:14;99892.13;;;0.60;100.00
74834;BME280;63361;52.384;20.930;2022-12-07T05:31:40;99886.91;;;0.53;100.00
74834;BME280;63361;52.384;20.930;2022-12-07T05:34:06;99886.66;;;0.55;100.00
74834;BME280;63361;52.384;20.930;2022-12-07T05:36:31;99892.13;;;0.60;100.00
74834;BME280;63361;52.384;20.930;2022-12-07T05:38:57;99897.06;;;0.56;100.00
74834;BME280;63361;52.384;20.930;2022-12-07T05:41:22;99875.22;;;0.43;100.00
74834;BME280;63361;52.384;20.930;2022-12-07T05:44:08;99885.47;;;0.39;100.00
74834;BME280;63361;52.384;20.930;2022-12-07T05:46:34;99885.84;;;0.43;100.00
74834;BME280;63361;52.384;20.930;2022-12-07T05:48:59;99883.19;;;0.43;100.00
74834;BME280;63361;52.384;20.930;2022-12-07T05:51:25;99894.38;;;0.45;100.00
74834;BME280;63361;52.384;20.930;2022-12-07T05:53:50;99900.13;;;0.42;100.00
74834;BME280;63361;52.384;20.930;2022-12-07T05:56:16;99889.75;;;0.40;100.00
74834;BME280;63361;52.384;20.930;2022-12-07T05:58:41;99886.84;;;0.30;100.00
74834;BME280;63361;52.384;20.930;2022-12-07T06:01:25;99888.19;;;0.32;100.00
74834;BME280;63361;52.384;20.930;2022-12-07T06:03:51;99895.03;;;0.28;100.00
74834;BME280;63361;52.384;20.930;2022-12-07T06:06:16;99893.19;;;0.29;100.00
74834;BME280;63361;52.384;20.930;2022-12-07T06:08:41;99896.16;;;0.32;100.00
74834;BME280;63361;52.384;20.930;2022-12-07T06:11:07;99884.03;;;0.25;100.00
74834;BME280;63361;52.384;20.930;2022-12-07T06:13:51;99896.06;;;0.27;100.00
74834;BME280;63361;52.384;20.930;2022-12-07T06:16:16;99894.38;;;0.15;100.00
74834;BME280;63361;52.384;20.930;2022-12-07T06:18:41;99895.50;;;0.07;100.00
74834;BME280;63361;52.384;20.930;2022-12-07T06:21:07;99900.72;;;0.14;100.00
74834;BME280;63361;52.384;20.930;2022-12-07T06:23:32;99895.53;;;0.19;100.00
74834;BME280;63361;52.384;20.930;2022-12-07T06:25:57;99882.09;;;0.02;100.00
74834;BME280;63361;52.384;20.930;2022-12-07T06:28:23;99894.09;;;0.05;100.00
74834;BME280;63361;52.384;20.930;2022-12-07T06:30:59;99889.91;;;-0.03;100.00
74834;BME280;63361;52.384;20.930;2022-12-07T06:33:25;99874.88;;;-0.09;100.00
74834;BME280;63361;52.384;20.930;2022-12-07T06:35:50;99886.91;;;-0.07;100.00
74834;BME280;63361;52.384;20.930;2022-12-07T06:38:16;99879.38;;;-0.10;100.00
74834;BME280;63361;52.384;20.930;2022-12-07T06:40:41;99881.75;;;-0.02;100.00
74834;BME280;63361;52.384;20.930;2022-12-07T06:43:07;99877.09;;;-0.06;100.00
74834;BME280;63361;52.384;20.930;2022-12-07T06:45:33;99884.63;;;-0.03;100.00
74834;BME280;63361;52.384;20.930;2022-12-07T06:47:58;99889.31;;;-0.05;100.00
74834;BME280;63361;52.384;20.930;2022-12-07T06:50:23;99878.41;;;-0.15;100.00
74834;BME280;63361;52.384;20.930;2022-12-07T06:52:50;99874.66;;;-0.08;100.00
74834;BME280;63361;52.384;20.930;2022-12-07T06:55:16;99874.59;;;-0.01;100.00
74834;BME280;63361;52.384;20.930;2022-12-07T06:57:41;99876.72;;;-0.10;100.00
74834;BME280;63361;52.384;20.930;2022-12-07T07:00:07;99872.16;;;-0.03;100.00
74834;BME280;63361;52.384;20.930;2022-12-07T07:02:33;99876.06;;;-0.05;100.00
74834;BME280;63361;52.384;20.930;2022-12-07T07:04:58;99875.97;;;0.02;100.00
74834;BME280;63361;52.384;20.930;2022-12-07T07:07:24;99878.75;;;0.07;100.00
74834;BME280;63361;52.384;20.930;2022-12-07T07:09:49;99878.88;;;0.00;100.00
74834;BME280;63361;52.384;20.930;2022-12-07T07:12:14;99887.69;;;0.12;100.00
74834;BME280;63361;52.384;20.930;2022-12-07T07:14:39;99879.78;;;0.06;100.00
74834;BME280;63361;52.384;20.930;2022-12-07T07:17:05;99883.41;;;0.11;100.00
74834;BME280;63361;52.384;20.930;2022-12-07T07:19:30;99894.13;;;0.16;100.00
74834;BME280;63361;52.384;20.930;2022-12-07T07:21:56;99878.81;;;0.18;100.00
74834;BME280;63361;52.384;20.930;2022-12-07T07:24:21;99887.00;;;0.17;100.00
74834;BME280;63361;52.384;20.930;2022-12-07T07:26:46;99878.53;;;0.08;100.00
74834;BME280;63361;52.384;20.930;2022-12-07T07:29:12;99867.38;;;0.18;100.00
74834;BME280;63361;52.384;20.930;2022-12-07T07:31:37;99879.75;;;0.24;100.00
74834;BME280;63361;52.384;20.930;2022-12-07T07:34:02;99867.84;;;0.15;100.00
74834;BME280;63361;52.384;20.930;2022-12-07T07:36:28;99874.09;;;0.20;100.00
74834;BME280;63361;52.384;20.930;2022-12-07T07:38:53;99875.16;;;0.31;100.00
74834;BME280;63361;52.384;20.930;2022-12-07T07:41:18;99867.19;;;0.31;100.00
74834;BME280;63361;52.384;20.930;2022-12-07T07:43:44;99879.69;;;0.30;100.00
74834;BME280;63361;52.384;20.930;2022-12-07T07:46:09;99877.59;;;0.32;100.00
74834;BME280;63361;52.384;20.930;2022-12-07T07:48:35;99875.63;;;0.28;100.00
74834;BME280;63361;52.384;20.930;2022-12-07T07:51:05;99869.72;;;0.26;100.00
74834;BME280;63361;52.384;20.930;2022-12-07T07:53:30;99885.25;;;0.41;100.00
74834;BME280;63361;52.384;20.930;2022-12-07T07:55:56;99874.63;;;0.41;100.00
74834;BME280;63361;52.384;20.930;2022-12-07T07:58:22;99879.50;;;0.44;100.00
74834;BME280;63361;52.384;20.930;2022-12-07T08:00:47;99862.63;;;0.38;100.00
74834;BME280;63361;52.384;20.930;2022-12-07T08:03:12;99867.84;;;0.45;100.00
74834;BME280;63361;52.384;20.930;2022-12-07T08:05:38;99887.47;;;0.55;100.00
74834;BME280;63361;52.384;20.930;2022-12-07T08:08:04;99875.91;;;0.50;100.00
74834;BME280;63361;52.384;20.930;2022-12-07T08:10:29;99886.97;;;0.47;100.00
74834;BME280;63361;52.384;20.930;2022-12-07T08:12:57;99888.28;;;0.56;100.00
74834;BME280;63361;52.384;20.930;2022-12-07T08:15:46;99895.44;;;0.55;100.00
74834;BME280;63361;52.384;20.930;2022-12-07T08:18:13;99876.50;;;0.52;100.00
74834;BME280;63361;52.384;20.930;2022-12-07T08:20:39;99896.41;;;0.61;100.00
74834;BME280;63361;52.384;20.930;2022-12-07T08:23:06;99889.13;;;0.68;100.00
74834;BME280;63361;52.384;20.930;2022-12-07T08:25:32;99895.97;;;0.76;100.00
74834;BME280;63361;52.384;20.930;2022-12-07T08:27:57;99893.53;;;0.74;100.00
74834;BME280;63361;52.384;20.930;2022-12-07T08:30:23;99899.66;;;0.86;100.00
74834;BME280;63361;52.384;20.930;2022-12-07T08:32:49;99886.38;;;0.75;100.00
74834;BME280;63361;52.384;20.930;2022-12-07T08:35:14;99895.28;;;0.92;100.00
74834;BME280;63361;52.384;20.930;2022-12-07T08:37:40;99891.13;;;0.84;100.00
74834;BME280;63361;52.384;20.930;2022-12-07T08:40:07;99882.47;;;0.89;100.00
74834;BME280;63361;52.384;20.930;2022-12-07T08:42:33;99893.31;;;0.99;100.00
74834;BME280;63361;52.384;20.930;2022-12-07T08:45:10;99899.69;;;1.10;100.00
74834;BME280;63361;52.384;20.930;2022-12-07T08:47:37;99902.59;;;1.20;100.00
74834;BME280;63361;52.384;20.930;2022-12-07T08:50:05;99888.59;;;1.13;100.00
74834;BME280;63361;52.384;20.930;2022-12-07T08:52:33;99902.81;;;1.30;99.94
74834;BME280;63361;52.384;20.930;2022-12-07T08:55:00;99895.88;;;1.40;99.29
74834;BME280;63361;52.384;20.930;2022-12-07T08:57:27;99880.97;;;1.39;98.98
74834;BME280;63361;52.384;20.930;2022-12-07T08:59:53;99887.22;;;1.33;99.58
74834;BME280;63361;52.384;20.930;2022-12-07T09:02:18;99898.53;;;1.40;99.49
74834;BME280;63361;52.384;20.930;2022-12-07T09:04:44;99881.06;;;1.45;98.99
74834;BME280;63361;52.384;20.930;2022-12-07T09:07:09;99883.63;;;1.51;99.01
74834;BME280;63361;52.384;20.930;2022-12-07T09:09:34;99877.50;;;1.51;98.39
74834;BME280;63361;52.384;20.930;2022-12-07T09:12:00;99875.63;;;1.63;97.82
74834;BME280;63361;52.384;20.930;2022-12-07T09:14:25;99891.75;;;1.85;97.97
74834;BME280;63361;52.384;20.930;2022-12-07T09:16:50;99884.81;;;1.84;97.80
74834;BME280;63361;52.384;20.930;2022-12-07T09:19:16;99875.72;;;1.80;97.08
74834;BME280;63361;52.384;20.930;2022-12-07T09:21:41;99864.34;;;1.84;97.11
74834;BME280;63361;52.384;20.930;2022-12-07T09:24:07;99870.00;;;1.88;96.52
74834;BME280;63361;52.384;20.930;2022-12-07T09:26:32;99856.97;;;1.74;96.22
74834;BME280;63361;52.384;20.930;2022-12-07T09:28:58;99867.38;;;1.76;96.16
74834;BME280;63361;52.384;20.930;2022-12-07T09:31:23;99869.88;;;1.94;96.64
74834;BME280;63361;52.384;20.930;2022-12-07T09:33:56;99867.88;;;2.01;96.99
74834;BME280;63361;52.384;20.930;2022-12-07T09:36:23;99872.59;;;2.11;95.59
74834;BME280;63361;52.384;20.930;2022-12-07T09:38:48;99865.38;;;2.23;95.43
74834;BME280;63361;52.384;20.930;2022-12-07T09:41:13;99856.00;;;2.21;94.68
74834;BME280;63361;52.384;20.930;2022-12-07T09:43:40;99862.00;;;2.28;94.51
74834;BME280;63361;52.384;20.930;2022-12-07T09:46:10;99867.78;;;2.25;94.09
74834;BME280;63361;52.384;20.930;2022-12-07T09:48:38;99855.88;;;2.27;93.13
74834;BME280;63361;52.384;20.930;2022-12-07T09:53:43;99861.19;;;2.27;93.77
74834;BME280;63361;52.384;20.930;2022-12-07T09:56:14;99853.44;;;2.26;93.44
74834;BME280;63361;52.384;20.930;2022-12-07T09:58:41;99849.97;;;2.25;93.18
74834;BME280;63361;52.384;20.930;2022-12-07T10:03:33;99846.91;;;2.05;92.88
74834;BME280;63361;52.384;20.930;2022-12-07T10:06:00;99838.53;;;1.85;92.62
74834;BME280;63361;52.384;20.930;2022-12-07T10:08:25;99863.13;;;2.03;93.32
74834;BME280;63361;52.384;20.930;2022-12-07T10:10:54;99849.81;;;2.03;93.26
74834;BME280;63361;52.384;20.930;2022-12-07T10:13:34;99861.63;;;2.07;93.50
74834;BME280;63361;52.384;20.930;2022-12-07T10:16:00;99833.28;;;2.01;92.88
74834;BME280;63361;52.384;20.930;2022-12-07T10:23:35;99831.25;;;1.92;92.10
74834;BME280;63361;52.384;20.930;2022-12-07T10:26:26;99835.34;;;1.99;92.40
74834;BME280;63361;52.384;20.930;2022-12-07T10:28:52;99853.84;;;2.06;92.80
74834;BME280;63361;52.384;20.930;2022-12-07T10:31:20;99843.44;;;2.04;92.14
74834;BME280;63361;52.384;20.930;2022-12-07T10:33:51;99836.84;;;2.07;92.32
74834;BME280;63361;52.384;20.930;2022-12-07T10:36:21;99846.81;;;2.00;92.52
74834;BME280;63361;52.384;20.930;2022-12-07T10:39:17;99856.06;;;2.09;92.18
74834;BME280;63361;52.384;20.930;2022-12-07T10:41:53;99842.50;;;2.10;91.76
74834;BME280;63361;52.384;20.930;2022-12-07T10:44:22;99833.78;;;2.15;92.30
74834;BME280;63361;52.384;20.930;2022-12-07T10:47:03;99846.56;;;2.30;91.08
74834;BME280;63361;52.384;20.930;2022-12-07T10:52:30;99849.84;;;2.65;89.80
74834;BME280;63361;52.384;20.930;2022-12-07T10:55:27;99851.78;;;2.70;90.00
74834;BME280;63361;52.384;20.930;2022-12-07T11:01:33;99848.22;;;2.64;90.02
74834;BME280;63361;52.384;20.930;2022-12-07T11:07:07;99855.59;;;2.57;90.85
74834;BME280;63361;52.384;20.930;2022-12-07T11:15:25;99853.47;;;2.76;89.58
74834;BME280;63361;52.384;20.930;2022-12-07T11:18:01;99845.41;;;2.88;90.17
74834;BME280;63361;52.384;20.930;2022-12-07T11:26:14;99847.09;;;2.77;89.70
74834;BME280;63361;52.384;20.930;2022-12-07T11:31:20;99857.22;;;2.75;89.58
74834;BME280;63361;52.384;20.930;2022-12-07T11:36:54;99830.88;;;2.78;90.36
74834;BME280;63361;52.384;20.930;2022-12-07T11:39:26;99839.63;;;2.74;89.66
74834;BME280;63361;52.384;20.930;2022-12-07T11:42:16;99805.34;;;2.49;90.48
74834;BME280;63361;52.384;20.930;2022-12-07T11:44:52;99833.53;;;2.78;89.85
74834;BME280;63361;52.384;20.930;2022-12-07T11:47:35;99826.81;;;2.76;89.82
74834;BME280;63361;52.384;20.930;2022-12-07T12:01:26;99813.59;;;2.98;89.79
74834;BME280;63361;52.384;20.930;2022-12-07T12:03:51;99826.69;;;3.21;88.60
74834;BME280;63361;52.384;20.930;2022-12-07T12:06:19;99816.09;;;3.26;89.61
74834;BME280;63361;52.384;20.930;2022-12-07T12:14:37;99811.03;;;3.90;87.82
74834;BME280;63361;52.384;20.930;2022-12-07T12:17:22;99804.88;;;3.89;86.75
74834;BME280;63361;52.384;20.930;2022-12-07T12:20:28;99803.88;;;3.96;86.82
74834;BME280;63361;52.384;20.930;2022-12-07T12:22:58;99803.28;;;3.67;87.94
74834;BME280;63361;52.384;20.930;2022-12-07T12:25:35;99778.13;;;3.36;87.76
74834;BME280;63361;52.384;20.930;2022-12-07T12:28:03;99793.38;;;3.02;88.98
74834;BME280;63361;52.384;20.930;2022-12-07T12:30:37;99788.66;;;2.87;90.46
74834;BME280;63361;52.384;20.930;2022-12-07T12:33:13;99796.31;;;2.83;91.13
74834;BME280;63361;52.384;20.930;2022-12-07T12:35:40;99786.94;;;2.64;91.47
74834;BME280;63361;52.384;20.930;2022-12-07T12:38:29;99798.34;;;2.60;91.64
74834;BME280;63361;52.384;20.930;2022-12-07T12:40:56;99783.66;;;2.57;92.87
74834;BME280;63361;52.384;20.930;2022-12-07T12:43:51;99787.69;;;2.60;91.78
74834;BME280;63361;52.384;20.930;2022-12-07T12:51:44;99784.84;;;2.50;91.21
74834;BME280;63361;52.384;20.930;2022-12-07T12:54:18;99784.75;;;2.44;91.44
74834;BME280;63361;52.384;20.930;2022-12-07T13:01:46;99759.44;;;2.42;92.35
74834;BME280;63361;52.384;20.930;2022-12-07T13:04:24;99771.72;;;2.43;92.24
74834;BME280;63361;52.384;20.930;2022-12-07T13:06:50;99771.72;;;2.43;91.98
74834;BME280;63361;52.384;20.930;2022-12-07T13:09:31;99771.53;;;2.50;91.79
74834;BME280;63361;52.384;20.930;2022-12-07T13:12:02;99768.06;;;2.49;92.09
74834;BME280;63361;52.384;20.930;2022-12-07T13:17:09;99756.38;;;2.33;92.25
74834;BME280;63361;52.384;20.930;2022-12-07T13:25:18;99776.53;;;2.13;94.03
74834;BME280;63361;52.384;20.930;2022-12-07T13:27:56;99777.06;;;2.15;94.07
74834;BME280;63361;52.384;20.930;2022-12-07T13:30:22;99766.59;;;2.08;94.59
74834;BME280;63361;52.384;20.930;2022-12-07T13:32:55;99778.69;;;2.16;95.05
74834;BME280;63361;52.384;20.930;2022-12-07T13:35:35;99774.09;;;2.11;95.18
74834;BME280;63361;52.384;20.930;2022-12-07T13:38:05;99769.97;;;2.03;94.87
74834;BME280;63361;52.384;20.930;2022-12-07T13:40:31;99776.81;;;1.99;95.54
74834;BME280;63361;52.384;20.930;2022-12-07T13:43:01;99774.94;;;2.00;94.48
74834;BME280;63361;52.384;20.930;2022-12-07T13:45:32;99781.31;;;1.99;95.38
74834;BME280;63361;52.384;20.930;2022-12-07T13:48:32;99768.25;;;1.81;96.66
74834;BME280;63361;52.384;20.930;2022-12-07T13:51:00;99784.50;;;1.84;95.79
74834;BME280;63361;52.384;20.930;2022-12-07T13:53:26;99782.44;;;1.86;96.22
74834;BME280;63361;52.384;20.930;2022-12-07T13:56:01;99777.97;;;1.75;96.89
74834;BME280;63361;52.384;20.930;2022-12-07T13:58:30;99769.34;;;1.68;96.87
74834;BME280;63361;52.384;20.930;2022-12-07T14:00:56;99783.53;;;1.73;96.38
74834;BME280;63361;52.384;20.930;2022-12-07T14:03:33;99787.22;;;1.72;97.04
74834;BME280;63361;52.384;20.930;2022-12-07T14:08:29;99780.97;;;1.50;96.91
74834;BME280;63361;52.384;20.930;2022-12-07T14:10:56;99784.44;;;1.51;97.95
74834;BME280;63361;52.384;20.930;2022-12-07T14:16:01;99792.28;;;1.46;97.50
74834;BME280;63361;52.384;20.930;2022-12-07T14:18:27;99794.38;;;1.44;97.63
74834;BME280;63361;52.384;20.930;2022-12-07T14:21:18;99781.47;;;1.24;97.49
74834;BME280;63361;52.384;20.930;2022-12-07T14:23:44;99792.56;;;1.32;98.07
74834;BME280;63361;52.384;20.930;2022-12-07T14:26:13;99794.50;;;1.25;98.27
74834;BME280;63361;52.384;20.930;2022-12-07T14:28:40;99780.56;;;1.18;98.35
74834;BME280;63361;52.384;20.930;2022-12-07T14:31:21;99780.09;;;1.21;97.63
74834;BME280;63361;52.384;20.930;2022-12-07T14:33:49;99792.22;;;1.17;97.52
74834;BME280;63361;52.384;20.930;2022-12-07T14:36:14;99783.69;;;1.03;97.32
74834;BME280;63361;52.384;20.930;2022-12-07T14:38:40;99785.19;;;0.99;97.76
74834;BME280;63361;52.384;20.930;2022-12-07T14:41:13;99781.97;;;0.86;97.78
74834;BME280;63361;52.384;20.930;2022-12-07T14:43:58;99781.63;;;0.82;98.10
74834;BME280;63361;52.384;20.930;2022-12-07T14:46:23;99770.66;;;0.67;98.05
74834;BME280;63361;52.384;20.930;2022-12-07T14:48:49;99781.63;;;0.70;98.30
74834;BME280;63361;52.384;20.930;2022-12-07T14:51:15;99794.41;;;0.62;98.80